Terminal Aerodrome Forecast
Issued by NWS Raleigh/Durham, NC

Home | Current Version | Previous Version | Text Only | Print | Product List | Glossary On
Versions: 1 2 3 4 5 6 7 8 9 10 11 12 13 14 15
000
FTUS42 KRAH 311735
TAFFAY
TAF
KFAY 311735Z 3118/0118 35007KT P6SM FEW040
     FM010300 VRB05KT P6SM BKN035 OVC090
     FM010700 VRB04KT P6SM VCSH OVC025
     FM011000 02008KT 3SM -RA OVC012
     FM011400 01013G18KT 4SM -RA BR BKN005 OVC012=

USA.gov is the U.S. government's official web portal to all federal, state and local government web resources and services.